Main page
METAR-TAF:

METAR-TAF

Airports :

Friedrichshafen Airport

Friedrichshafen, Germany

latitude: 47-40N, longitude: 009-31E, elevation: 416 m

Current weather observation

The report was made 32 minutes ago, at 22:50 UTC
Wind 8 kt from the Northeast
Temperature 15°C
Humidity 44%
Pressure 1000 hPa
Visibility 10 km or more

METAR: EDNY 222250Z AUTO 05008KT 9999 // NCD 15/03 Q1000

Time: 01:22 (23:22 UTC)

Forecast

The report was made 6 hours and 22 minutes ago, at 17:00 UTC
Forecast valid from 22 at 18 UTC to 23 at 18 UTC
Wind 6 kt from the Northeast
Visibility 10 km or more
no clouds below 1500 m and no cumulonimbus
Becoming
from 23 at 08 UTC to 23 at 10 UTC
Wind 5 kt from the Southwest
Becoming
from 23 at 15 UTC to 23 at 18 UTC
Wind 5 kt from the Southeast

TAF: EDNY 221700Z 2218/2318 05006KT CAVOK BECMG 2308/2310 23005KT BECMG 2315/2318 13005KT

Weather observations and forecasts of more than 4000 airports (METAR and TAF reports).

The available stations are represented by yellow and red dots on the map.

Hover mouse over dot to see the name of the station.

Then click to see weather observations and forecasts.

To change the map : click on the green buttons with a black cross to zoom in, on the green button with a dash to zoom out, or on the green arrows for adjacent maps.


METAR-TAF: